Time;durP1;ratioP1;P1;durP2;ratioP2;P2;SDS_P1;SDS_P2;PMS_P1;PMS_P2;Temp;Humidity;BMP_temperature;BMP_pressure;BME280_temperature;BME280_humidity;BME280_pressure;Samples;Min_cycle;Max_cycle;Signal;HPM_P1;HPM_P2
2022/10/31 00:02:14;;;;;;;2.92;2.58;;;;;;;;;;4977500;28;20059;-30
2022/10/31 00:04:40;;;;;;;4.80;2.65;;;;;;;;;;4997716;28;20066;-30
2022/10/31 00:07:06;;;;;;;3.40;2.60;;;;;;;;;;4997087;28;20343;-30
2022/10/31 00:09:32;;;;;;;3.13;2.88;;;;;;;;;;4997383;28;20034;-31
2022/10/31 00:11:59;;;;;;;2.95;2.63;;;;;;;;;;4996752;28;20019;-31
2022/10/31 00:14:25;;;;;;;3.03;2.83;;;;;;;;;;4997028;28;20027;-30
2022/10/31 00:16:51;;;;;;;2.88;2.67;;;;;;;;;;4996652;28;20030;-32
2022/10/31 00:19:17;;;;;;;3.42;2.28;;;;;;;;;;4996694;28;20046;-30
2022/10/31 00:21:43;;;;;;;2.70;2.50;;;;;;;;;;4996922;28;20041;-31
2022/10/31 00:24:09;;;;;;;2.90;2.70;;;;;;;;;;4996512;28;20026;-33
2022/10/31 00:26:35;;;;;;;3.17;2.88;;;;;;;;;;4996441;28;20034;-31
2022/10/31 00:29:02;;;;;;;3.30;2.60;;;;;;;;;;4996784;28;20034;-30
2022/10/31 00:31:28;;;;;;;3.38;2.65;;;;;;;;;;4996445;28;20029;-30
2022/10/31 00:33:55;;;;;;;2.58;2.38;;;;;;;;;;4996577;28;20048;-32
2022/10/31 00:36:21;;;;;;;2.55;2.42;;;;;;;;;;4996321;28;20117;-30
2022/10/31 00:38:48;;;;;;;2.72;2.53;;;;;;;;;;4997040;28;20022;-29
2022/10/31 00:41:15;;;;;;;3.58;2.50;;;;;;;;;;4996294;28;20030;-31
2022/10/31 00:43:41;;;;;;;2.70;2.50;;;;;;;;;;4996105;28;20026;-30
2022/10/31 00:46:07;;;;;;;3.30;2.97;;;;;;;;;;4996715;28;20026;-30
2022/10/31 00:48:33;;;;;;;2.60;2.40;;;;;;;;;;4995820;28;20523;-32
2022/10/31 00:51:00;;;;;;;3.38;3.08;;;;;;;;;;4996128;28;20026;-32
2022/10/31 00:53:26;;;;;;;2.50;2.30;;;;;;;;;;4996246;28;20067;-31
2022/10/31 00:55:52;;;;;;;3.53;3.03;;;;;;;;;;4996039;28;20077;-30
2022/10/31 00:58:18;;;;;;;2.60;2.40;;;;;;;;;;4996212;28;20034;-30
2022/10/31 01:00:44;;;;;;;2.30;2.13;;;;;;;;;;4996154;28;20386;-32
2022/10/31 01:03:11;;;;;;;2.97;2.78;;;;;;;;;;4995699;28;20129;-32
2022/10/31 01:05:37;;;;;;;2.38;2.25;;;;;;;;;;4996089;28;20139;-31
2022/10/31 01:08:03;;;;;;;2.50;2.30;;;;;;;;;;4996017;28;20084;-31
2022/10/31 01:10:29;;;;;;;3.38;3.08;;;;;;;;;;4995979;28;20040;-30
2022/10/31 01:12:55;;;;;;;2.92;2.55;;;;;;;;;;4995934;28;20022;-29
2022/10/31 01:15:22;;;;;;;2.47;2.15;;;;;;;;;;4995918;28;20041;-30
2022/10/31 01:17:49;;;;;;;4.15;2.67;;;;;;;;;;4995899;28;20030;-32
2022/10/31 01:20:15;;;;;;;3.35;2.28;;;;;;;;;;4995552;28;20058;-32
2022/10/31 01:22:41;;;;;;;2.75;2.55;;;;;;;;;;4995517;28;20054;-30
2022/10/31 01:25:09;;;;;;;2.75;2.55;;;;;;;;;;4995848;28;20034;-31
2022/10/31 01:27:35;;;;;;;5.65;2.80;;;;;;;;;;4995749;28;20040;-30
2022/10/31 01:30:01;;;;;;;2.63;2.42;;;;;;;;;;4995726;28;20031;-30
2022/10/31 01:32:28;;;;;;;2.75;2.55;;;;;;;;;;4995569;28;20106;-30
2022/10/31 01:34:55;;;;;;;2.58;2.38;;;;;;;;;;4995382;28;20030;-30
2022/10/31 01:37:21;;;;;;;3.17;2.97;;;;;;;;;;4995640;28;20034;-30
2022/10/31 01:39:48;;;;;;;2.65;2.45;;;;;;;;;;4995297;28;20088;-30
2022/10/31 01:42:22;;;;;;;2.88;2.67;;;;;;;;;;4995530;28;20586;-32
2022/10/31 01:44:56;;;;;;;3.17;2.97;;;;;;;;;;4995601;28;20408;-30
2022/10/31 01:47:27;;;;;;;3.80;2.70;;;;;;;;;;4995180;28;20045;-31
2022/10/31 01:49:55;;;;;;;2.60;2.40;;;;;;;;;;4995820;28;20072;-30
2022/10/31 01:52:24;;;;;;;2.97;2.78;;;;;;;;;;4995359;28;20027;-30
2022/10/31 01:54:54;;;;;;;3.00;2.65;;;;;;;;;;4995232;28;20165;-30
2022/10/31 01:57:21;;;;;;;2.92;2.72;;;;;;;;;;4995521;28;20105;-31
2022/10/31 01:59:53;;;;;;;3.00;2.70;;;;;;;;;;4997159;28;20037;-30
2022/10/31 02:02:19;;;;;;;2.28;2.13;;;;;;;;;;4999335;28;20026;-30
2022/10/31 02:04:47;;;;;;;3.15;2.85;;;;;;;;;;4999177;28;20070;-30
2022/10/31 02:07:17;;;;;;;3.00;2.80;;;;;;;;;;4999317;28;20074;-30
2022/10/31 02:09:44;;;;;;;3.25;2.95;;;;;;;;;;4999087;28;20049;-30
2022/10/31 02:12:10;;;;;;;2.80;2.58;;;;;;;;;;4999265;28;20030;-29
2022/10/31 02:14:38;;;;;;;3.20;2.30;;;;;;;;;;4999019;28;20050;-31
2022/10/31 02:17:04;;;;;;;3.08;2.78;;;;;;;;;;4998970;28;20026;-34
2022/10/31 02:19:46;;;;;;;2.83;2.63;;;;;;;;;;4999476;28;20026;-30
2022/10/31 02:22:15;;;;;;;2.95;2.63;;;;;;;;;;4999094;28;20117;-31
2022/10/31 02:24:45;;;;;;;2.65;2.45;;;;;;;;;;4998816;28;20109;-30
2022/10/31 02:27:30;;;;;;;3.63;2.45;;;;;;;;;;4998926;28;20036;-31
2022/10/31 02:30:04;;;;;;;2.80;2.60;;;;;;;;;;4998669;28;20097;-31
2022/10/31 02:32:49;;;;;;;2.60;2.40;;;;;;;;;;4998610;28;20034;-31
2022/10/31 02:35:26;;;;;;;2.33;2.13;;;;;;;;;;4998635;28;20331;-32
2022/10/31 02:38:01;;;;;;;3.00;2.33;;;;;;;;;;4998876;28;20042;-30
2022/10/31 02:40:31;;;;;;;3.63;2.50;;;;;;;;;;4998494;28;20042;-32
2022/10/31 02:43:07;;;;;;;2.42;2.33;;;;;;;;;;4998683;28;20101;-31
2022/10/31 02:45:39;;;;;;;2.92;2.72;;;;;;;;;;4998723;28;20036;-32
2022/10/31 02:48:10;;;;;;;2.95;2.75;;;;;;;;;;4998643;28;20030;-30
2022/10/31 02:50:39;;;;;;;2.20;2.10;;;;;;;;;;4998687;28;20030;-31
2022/10/31 02:53:05;;;;;;;2.63;2.42;;;;;;;;;;4998505;28;20080;-32
2022/10/31 02:55:34;;;;;;;2.50;2.30;;;;;;;;;;4998258;28;20026;-31
2022/10/31 02:58:03;;;;;;;2.35;2.17;;;;;;;;;;4998497;28;20030;-30
2022/10/31 03:00:33;;;;;;;2.70;2.50;;;;;;;;;;4998178;28;20045;-30
2022/10/31 03:03:21;;;;;;;2.83;2.63;;;;;;;;;;4977541;28;20056;-30
2022/10/31 03:05:47;;;;;;;2.88;2.50;;;;;;;;;;4978926;28;20057;-30
2022/10/31 03:08:22;;;;;;;2.70;2.50;;;;;;;;;;4978430;28;20473;-31
2022/10/31 03:10:59;;;;;;;3.10;2.90;;;;;;;;;;4978737;28;20022;-31
2022/10/31 03:13:44;;;;;;;3.58;3.03;;;;;;;;;;4978407;28;20105;-32
2022/10/31 03:16:10;;;;;;;2.60;2.40;;;;;;;;;;4978472;28;20050;-31
2022/10/31 03:18:48;;;;;;;2.55;2.35;;;;;;;;;;4978378;28;20114;-30
2022/10/31 03:21:17;;;;;;;3.25;2.20;;;;;;;;;;4978617;28;20126;-31
2022/10/31 03:23:44;;;;;;;3.03;2.72;;;;;;;;;;4978189;28;20474;-30
2022/10/31 03:26:12;;;;;;;2.90;2.70;;;;;;;;;;4978088;28;20039;-31
2022/10/31 03:28:41;;;;;;;2.72;2.50;;;;;;;;;;4978152;28;20045;-30
2022/10/31 03:31:08;;;;;;;3.30;2.88;;;;;;;;;;4978426;28;20042;-30
2022/10/31 03:33:36;;;;;;;2.80;2.60;;;;;;;;;;4978051;28;20059;-31
2022/10/31 03:36:04;;;;;;;3.35;2.75;;;;;;;;;;4978063;28;20030;-30
2022/10/31 03:38:32;;;;;;;2.33;2.22;;;;;;;;;;4977999;28;20050;-32
2022/10/31 03:41:00;;;;;;;2.47;2.28;;;;;;;;;;4978020;28;20403;-31
2022/10/31 03:43:29;;;;;;;2.60;2.40;;;;;;;;;;4978175;28;20066;-30
2022/10/31 03:45:55;;;;;;;2.90;2.67;;;;;;;;;;4978182;28;20041;-30
2022/10/31 03:48:22;;;;;;;3.13;2.42;;;;;;;;;;4977733;28;20122;-30
2022/10/31 03:50:52;;;;;;;2.30;2.10;;;;;;;;;;4978084;28;20085;-30
2022/10/31 03:53:25;;;;;;;2.50;2.15;;;;;;;;;;4977667;28;20026;-32
2022/10/31 03:56:02;;;;;;;2.85;2.28;;;;;;;;;;4977719;28;20026;-31
2022/10/31 03:58:39;;;;;;;2.65;2.30;;;;;;;;;;4976747;28;20509;-31
2022/10/31 04:01:06;;;;;;;2.15;2.05;;;;;;;;;;4978424;28;20162;-30
2022/10/31 04:03:34;;;;;;;2.83;2.58;;;;;;;;;;4987722;28;20049;-31
2022/10/31 04:06:04;;;;;;;2.70;2.50;;;;;;;;;;4997234;28;20030;-31
2022/10/31 04:08:32;;;;;;;2.88;2.45;;;;;;;;;;4979963;28;20181;-30
2022/10/31 04:11:00;;;;;;;2.80;2.30;;;;;;;;;;4996845;28;20056;-30
2022/10/31 04:13:31;;;;;;;2.75;2.53;;;;;;;;;;4997032;28;20018;-32
2022/10/31 04:15:57;;;;;;;2.90;2.70;;;;;;;;;;4997116;28;20373;-30
2022/10/31 04:18:23;;;;;;;2.47;2.28;;;;;;;;;;4996687;28;20062;-30
2022/10/31 04:20:50;;;;;;;2.47;2.28;;;;;;;;;;4996701;28;20026;-32
2022/10/31 04:23:20;;;;;;;2.90;2.70;;;;;;;;;;4996003;28;20034;-30
2022/10/31 04:25:46;;;;;;;2.50;2.30;;;;;;;;;;4997136;28;20027;-32
2022/10/31 04:28:12;;;;;;;2.22;2.13;;;;;;;;;;4996735;28;20066;-31
2022/10/31 04:30:39;;;;;;;3.05;2.80;;;;;;;;;;4996734;28;20026;-31
2022/10/31 04:33:05;;;;;;;2.70;2.50;;;;;;;;;;4996382;28;20053;-30
2022/10/31 04:35:31;;;;;;;2.75;2.55;;;;;;;;;;4996386;28;20036;-30
2022/10/31 04:37:57;;;;;;;2.50;2.10;;;;;;;;;;4996593;28;20458;-30
2022/10/31 04:40:23;;;;;;;3.38;2.55;;;;;;;;;;4996460;28;20030;-31
2022/10/31 04:42:49;;;;;;;2.47;2.30;;;;;;;;;;4996155;28;20038;-30
2022/10/31 04:45:15;;;;;;;2.72;2.42;;;;;;;;;;4979061;28;20033;-30
2022/10/31 04:47:42;;;;;;;2.63;2.20;;;;;;;;;;4996275;28;20038;-30
2022/10/31 04:50:08;;;;;;;2.70;2.50;;;;;;;;;;4996053;28;20022;-30
2022/10/31 04:52:39;;;;;;;2.75;2.50;;;;;;;;;;4995911;28;20054;-30
2022/10/31 04:55:05;;;;;;;2.65;2.40;;;;;;;;;;4995954;28;20034;-30
2022/10/31 04:57:31;;;;;;;2.20;2.10;;;;;;;;;;4996110;28;20042;-30
2022/10/31 04:59:58;;;;;;;2.40;2.20;;;;;;;;;;4995737;28;20026;-29
2022/10/31 05:02:24;;;;;;;2.80;2.60;;;;;;;;;;4978337;28;20037;-32
2022/10/31 05:04:50;;;;;;;2.25;1.80;;;;;;;;;;4996050;28;20362;-34
2022/10/31 05:07:16;;;;;;;2.50;2.30;;;;;;;;;;4995693;28;20445;-33
2022/10/31 05:09:42;;;;;;;2.38;2.17;;;;;;;;;;4995926;28;20428;-31
2022/10/31 05:12:08;;;;;;;2.50;2.28;;;;;;;;;;4995914;28;20366;-31
2022/10/31 05:14:34;;;;;;;2.63;2.05;;;;;;;;;;4995969;28;20056;-35
2022/10/31 05:17:00;;;;;;;2.85;2.65;;;;;;;;;;4995591;28;20037;-30
2022/10/31 05:19:27;;;;;;;2.13;2.03;;;;;;;;;;4995511;28;20042;-31
2022/10/31 05:21:53;;;;;;;2.38;2.17;;;;;;;;;;4995725;28;20377;-32
2022/10/31 05:24:21;;;;;;;2.40;2.20;;;;;;;;;;4995974;28;20030;-31
2022/10/31 05:26:48;;;;;;;2.63;2.42;;;;;;;;;;4995621;28;20034;-33
2022/10/31 05:29:14;;;;;;;2.58;2.38;;;;;;;;;;4995603;28;20023;-31
2022/10/31 05:31:40;;;;;;;3.15;2.33;;;;;;;;;;4995656;28;20038;-32
2022/10/31 05:34:06;;;;;;;2.33;2.13;;;;;;;;;;4994631;28;20034;-32
2022/10/31 05:36:32;;;;;;;2.63;2.42;;;;;;;;;;4995145;28;20031;-32
2022/10/31 05:38:58;;;;;;;3.97;2.33;;;;;;;;;;4995460;28;20037;-34
2022/10/31 05:41:24;;;;;;;2.50;2.30;;;;;;;;;;4977947;28;20026;-33
2022/10/31 05:43:51;;;;;;;2.38;2.17;;;;;;;;;;4977931;28;20106;-31
2022/10/31 05:46:17;;;;;;;2.50;2.33;;;;;;;;;;4995098;28;20040;-33
2022/10/31 05:48:43;;;;;;;3.95;2.78;;;;;;;;;;4995427;28;20038;-34
2022/10/31 05:51:09;;;;;;;6.57;2.38;;;;;;;;;;4994904;28;20086;-31
2022/10/31 05:53:35;;;;;;;3.00;2.80;;;;;;;;;;4995227;28;20042;-31
2022/10/31 05:56:01;;;;;;;2.50;2.30;;;;;;;;;;4995310;28;20034;-32
2022/10/31 05:58:28;;;;;;;2.83;2.40;;;;;;;;;;4995000;28;20034;-32
2022/10/31 06:03:30;;;;;;;2.58;2.35;;;;;;;;;;5262051;23;20070;-32
2022/10/31 06:05:56;;;;;;;2.45;2.25;;;;;;;;;;4994830;28;20033;-31
2022/10/31 06:08:22;;;;;;;2.38;2.17;;;;;;;;;;4994746;28;20125;-32
2022/10/31 06:10:48;;;;;;;3.22;2.65;;;;;;;;;;4994963;28;20030;-32
2022/10/31 06:13:14;;;;;;;2.60;2.40;;;;;;;;;;4995182;28;20394;-32
2022/10/31 06:15:41;;;;;;;3.22;2.17;;;;;;;;;;4994918;28;20023;-32
2022/10/31 06:18:08;;;;;;;4.25;2.47;;;;;;;;;;4978234;28;20030;-31
2022/10/31 06:20:35;;;;;;;3.65;2.28;;;;;;;;;;4977904;28;20446;-31
2022/10/31 06:23:01;;;;;;;3.50;2.40;;;;;;;;;;4994819;28;20034;-31
2022/10/31 06:25:27;;;;;;;7.72;3.15;;;;;;;;;;4994905;28;20034;-30
2022/10/31 06:27:54;;;;;;;5.75;2.50;;;;;;;;;;4994959;28;20418;-29
2022/10/31 06:30:20;;;;;;;5.25;2.55;;;;;;;;;;4995019;28;20034;-29
2022/10/31 06:32:46;;;;;;;2.80;2.47;;;;;;;;;;4995006;28;20026;-31
2022/10/31 06:35:12;;;;;;;3.20;2.90;;;;;;;;;;4995351;28;20050;-30
2022/10/31 06:37:39;;;;;;;2.78;2.55;;;;;;;;;;4995078;28;20110;-31
2022/10/31 06:40:05;;;;;;;3.58;2.30;;;;;;;;;;4994743;28;20084;-31
2022/10/31 06:42:32;;;;;;;3.75;2.03;;;;;;;;;;4994709;28;20385;-32
2022/10/31 06:44:58;;;;;;;6.88;2.30;;;;;;;;;;4995266;28;20054;-31
2022/10/31 06:47:24;;;;;;;2.88;2.15;;;;;;;;;;4998450;28;20065;-30
2022/10/31 06:49:50;;;;;;;2.60;2.40;;;;;;;;;;4998540;28;20109;-31
2022/10/31 06:52:16;;;;;;;3.53;3.22;;;;;;;;;;4981024;28;20084;-32
2022/10/31 06:54:42;;;;;;;2.35;1.92;;;;;;;;;;4998200;28;20050;-32
2022/10/31 06:57:09;;;;;;;4.70;2.78;;;;;;;;;;4998450;28;20088;-31
2022/10/31 06:59:35;;;;;;;2.78;1.88;;;;;;;;;;4998154;28;20038;-31
2022/10/31 07:02:01;;;;;;;2.38;1.88;;;;;;;;;;4998262;28;20053;-31
2022/10/31 07:04:27;;;;;;;2.78;2.58;;;;;;;;;;4997949;28;20473;-31
2022/10/31 07:06:53;;;;;;;3.35;2.92;;;;;;;;;;4997950;28;20046;-31
2022/10/31 07:09:20;;;;;;;5.18;2.72;;;;;;;;;;4997971;28;20022;-30
2022/10/31 07:11:46;;;;;;;3.08;2.20;;;;;;;;;;4998072;28;20404;-30
2022/10/31 07:14:13;;;;;;;2.78;2.30;;;;;;;;;;4997812;28;20030;-30
2022/10/31 07:16:39;;;;;;;6.30;3.72;;;;;;;;;;4997997;28;20081;-32
2022/10/31 07:19:05;;;;;;;3.47;2.47;;;;;;;;;;4997652;28;20053;-32
2022/10/31 07:21:31;;;;;;;4.85;2.35;;;;;;;;;;4997885;28;20022;-30
2022/10/31 07:23:57;;;;;;;3.53;2.47;;;;;;;;;;4997542;28;20030;-32
2022/10/31 07:26:23;;;;;;;6.25;2.38;;;;;;;;;;4997813;28;20420;-31
2022/10/31 07:28:50;;;;;;;10.70;2.55;;;;;;;;;;4997591;28;20033;-31
2022/10/31 07:31:16;;;;;;;3.22;2.92;;;;;;;;;;4997521;28;20026;-32
2022/10/31 07:33:42;;;;;;;5.30;2.50;;;;;;;;;;4997381;28;20030;-32
2022/10/31 07:36:08;;;;;;;7.20;2.50;;;;;;;;;;4997748;28;20385;-32
2022/10/31 07:38:34;;;;;;;3.42;2.65;;;;;;;;;;4997279;28;20030;-31
2022/10/31 07:41:00;;;;;;;6.68;3.17;;;;;;;;;;4997275;28;20034;-31
2022/10/31 07:43:26;;;;;;;8.98;2.05;;;;;;;;;;4997191;28;20117;-32
2022/10/31 07:45:53;;;;;;;4.50;2.38;;;;;;;;;;4997581;28;20144;-32
2022/10/31 07:48:20;;;;;;;3.92;2.38;;;;;;;;;;4997478;28;20331;-32
2022/10/31 07:50:46;;;;;;;9.68;2.75;;;;;;;;;;4980212;28;20476;-31
2022/10/31 07:53:13;;;;;;;7.15;2.05;;;;;;;;;;4996980;28;20018;-30
2022/10/31 07:55:39;;;;;;;6.13;3.00;;;;;;;;;;4997333;28;20022;-30
2022/10/31 07:58:07;;;;;;;7.25;2.63;;;;;;;;;;4996403;28;20114;-30
2022/10/31 08:00:34;;;;;;;5.15;2.47;;;;;;;;;;4997259;28;20412;-30
2022/10/31 08:03:02;;;;;;;8.55;2.53;;;;;;;;;;4996791;28;20091;-30
2022/10/31 08:05:29;;;;;;;4.35;2.60;;;;;;;;;;4997196;28;20030;-32
2022/10/31 08:07:55;;;;;;;6.18;2.90;;;;;;;;;;4997010;28;20401;-34
2022/10/31 08:10:22;;;;;;;8.98;3.13;;;;;;;;;;4996791;28;20073;-30
2022/10/31 08:12:56;;;;;;;5.57;2.75;;;;;;;;;;4996773;28;20018;-30
2022/10/31 08:15:22;;;;;;;5.30;2.17;;;;;;;;;;4996980;28;20349;-31
2022/10/31 08:17:48;;;;;;;8.65;3.10;;;;;;;;;;4996582;28;20027;-30
2022/10/31 08:20:15;;;;;;;6.15;2.55;;;;;;;;;;4996579;28;20030;-30
2022/10/31 08:22:41;;;;;;;2.17;1.98;;;;;;;;;;4979819;28;20432;-34
2022/10/31 08:25:07;;;;;;;5.43;2.70;;;;;;;;;;4996659;28;20026;-32
2022/10/31 08:27:33;;;;;;;5.32;2.70;;;;;;;;;;4996648;28;20030;-32
2022/10/31 08:30:00;;;;;;;5.40;2.67;;;;;;;;;;4996278;28;20105;-34
2022/10/31 08:32:26;;;;;;;5.65;2.78;;;;;;;;;;4995955;28;20088;-35
2022/10/31 08:34:52;;;;;;;5.97;2.38;;;;;;;;;;4996519;28;20361;-32
2022/10/31 08:37:19;;;;;;;7.78;2.40;;;;;;;;;;4996196;28;20046;-34
2022/10/31 08:39:46;;;;;;;5.57;2.45;;;;;;;;;;4996217;28;20092;-32
2022/10/31 08:42:13;;;;;;;3.35;2.63;;;;;;;;;;4979126;28;20084;-33
2022/10/31 08:44:39;;;;;;;10.25;2.72;;;;;;;;;;4996337;28;20030;-34
2022/10/31 08:47:05;;;;;;;7.25;2.53;;;;;;;;;;4995927;28;20022;-34
2022/10/31 08:49:32;;;;;;;3.70;2.22;;;;;;;;;;4995941;28;20138;-32
2022/10/31 08:51:58;;;;;;;5.75;2.97;;;;;;;;;;4995780;28;20121;-31
2022/10/31 08:54:24;;;;;;;8.52;2.58;;;;;;;;;;4995820;28;20026;-32
2022/10/31 08:56:54;;;;;;;3.58;2.30;;;;;;;;;;4996248;28;20053;-32
2022/10/31 08:59:21;;;;;;;7.80;2.28;;;;;;;;;;4995962;28;20034;-33
2022/10/31 09:01:47;;;;;;;10.70;2.72;;;;;;;;;;4995818;28;20026;-32
2022/10/31 09:04:13;;;;;;;5.28;2.92;;;;;;;;;;4995478;28;20050;-32
2022/10/31 09:06:39;;;;;;;5.05;2.05;;;;;;;;;;4995455;28;20041;-31
2022/10/31 09:09:05;;;;;;;6.88;2.53;;;;;;;;;;4995622;28;20405;-33
2022/10/31 09:11:32;;;;;;;4.82;2.72;;;;;;;;;;4995742;28;20026;-33
2022/10/31 09:13:58;;;;;;;7.50;3.53;;;;;;;;;;4995672;28;20019;-36
2022/10/31 09:16:24;;;;;;;12.63;3.25;;;;;;;;;;4995399;28;20037;-32
2022/10/31 09:18:50;;;;;;;6.72;3.33;;;;;;;;;;4995767;28;20191;-31
2022/10/31 09:21:16;;;;;;;7.78;2.83;;;;;;;;;;4995551;28;20038;-34
2022/10/31 09:23:42;;;;;;;6.70;2.85;;;;;;;;;;4995441;28;20023;-35
2022/10/31 09:26:08;;;;;;;4.15;2.72;;;;;;;;;;4995401;28;20038;-31
2022/10/31 09:28:35;;;;;;;7.07;2.80;;;;;;;;;;4995230;28;20039;-32
2022/10/31 09:31:01;;;;;;;3.28;2.60;;;;;;;;;;4995521;28;20061;-31
2022/10/31 09:33:27;;;;;;;10.10;2.83;;;;;;;;;;4995459;28;20022;-32
2022/10/31 09:35:53;;;;;;;10.52;2.90;;;;;;;;;;4995422;28;20045;-32
2022/10/31 09:38:20;;;;;;;9.73;2.63;;;;;;;;;;4995427;28;20112;-32
2022/10/31 09:40:46;;;;;;;7.88;3.03;;;;;;;;;;4995424;28;20358;-32
2022/10/31 09:43:12;;;;;;;9.13;3.08;;;;;;;;;;4994945;28;20034;-32
2022/10/31 09:45:50;;;;;;;5.28;2.85;;;;;;;;;;4995364;28;20022;-32
2022/10/31 09:48:28;;;;;;;14.68;3.28;;;;;;;;;;4995044;28;20041;-32
2022/10/31 09:50:58;;;;;;;12.73;3.70;;;;;;;;;;4995179;28;20034;-32
2022/10/31 09:53:28;;;;;;;4.85;3.13;;;;;;;;;;4995371;28;20030;-33
2022/10/31 09:55:55;;;;;;;6.20;2.40;;;;;;;;;;4995483;28;20023;-31
2022/10/31 09:58:24;;;;;;;6.95;2.72;;;;;;;;;;4995189;28;20046;-32
2022/10/31 10:00:50;;;;;;;7.10;3.08;;;;;;;;;;4995078;28;20034;-32
2022/10/31 10:03:22;;;;;;;8.35;2.72;;;;;;;;;;4994929;28;20105;-32
2022/10/31 10:06:02;;;;;;;7.00;2.92;;;;;;;;;;4995327;28;20034;-33
2022/10/31 10:08:31;;;;;;;6.25;3.03;;;;;;;;;;4995307;28;20033;-31
2022/10/31 10:11:18;;;;;;;9.40;2.30;;;;;;;;;;4994988;28;20536;-32
2022/10/31 10:13:48;;;;;;;10.18;3.15;;;;;;;;;;4995213;28;20424;-33
2022/10/31 10:16:23;;;;;;;5.50;3.20;;;;;;;;;;4995024;28;20034;-32
2022/10/31 10:18:57;;;;;;;11.20;2.65;;;;;;;;;;4994987;28;20076;-33
2022/10/31 10:21:42;;;;;;;5.97;2.53;;;;;;;;;;4997813;28;20030;-34
2022/10/31 10:24:11;;;;;;;10.52;2.88;;;;;;;;;;4998693;28;20034;-32
2022/10/31 10:26:38;;;;;;;8.80;2.70;;;;;;;;;;4998618;28;20089;-32
2022/10/31 10:29:23;;;;;;;8.20;2.78;;;;;;;;;;4998875;28;20036;-34
2022/10/31 10:31:51;;;;;;;8.40;2.85;;;;;;;;;;4998595;28;20057;-35
2022/10/31 10:34:23;;;;;;;4.15;2.40;;;;;;;;;;4998584;28;20027;-34
2022/10/31 10:36:58;;;;;;;5.40;2.75;;;;;;;;;;4998882;28;20046;-31
2022/10/31 10:39:46;;;;;;;13.63;3.00;;;;;;;;;;4998523;28;20040;-33
2022/10/31 10:47:44;;;;;;;9.63;2.65;;;;;;;;;;4998491;28;20373;-31
2022/10/31 10:50:18;;;;;;;12.15;3.03;;;;;;;;;;4981591;28;20338;-32
2022/10/31 10:52:49;;;;;;;7.38;2.97;;;;;;;;;;4998448;28;20030;-32
2022/10/31 10:55:22;;;;;;;8.35;2.45;;;;;;;;;;4998193;28;20029;-33
2022/10/31 10:57:53;;;;;;;11.25;3.15;;;;;;;;;;4998606;28;20029;-32
2022/10/31 11:00:24;;;;;;;7.40;3.90;;;;;;;;;;4997983;28;20069;-32
2022/10/31 11:02:50;;;;;;;9.25;3.42;;;;;;;;;;4997844;28;20077;-33
2022/10/31 11:05:37;;;;;;;21.85;3.25;;;;;;;;;;4998082;28;20030;-34
2022/10/31 11:08:04;;;;;;;9.13;2.67;;;;;;;;;;4997942;28;20034;-32
2022/10/31 11:10:31;;;;;;;8.57;2.42;;;;;;;;;;4998055;28;20038;-31
2022/10/31 11:13:09;;;;;;;7.82;2.92;;;;;;;;;;4997730;28;20109;-31
2022/10/31 11:15:50;;;;;;;15.65;2.95;;;;;;;;;;4998199;28;20046;-34
2022/10/31 11:18:21;;;;;;;11.45;3.47;;;;;;;;;;4997901;28;20030;-32
2022/10/31 11:20:47;;;;;;;;;;;;;;;;;;4998516;28;20022;-32
2022/10/31 11:23:20;;;;;;;10.30;2.38;;;;;;;;;;4997644;28;19910;-32
2022/10/31 11:25:51;;;;;;;6.00;2.75;;;;;;;;;;4998479;28;20030;-33
2022/10/31 11:28:17;;;;;;;11.63;3.17;;;;;;;;;;4997487;28;20060;-32
2022/10/31 11:30:55;;;;;;;13.00;3.15;;;;;;;;;;4997369;28;20026;-36
2022/10/31 11:33:24;;;;;;;10.55;3.08;;;;;;;;;;4996633;28;20105;-34
2022/10/31 11:35:50;;;;;;;11.68;3.05;;;;;;;;;;4997929;28;20103;-32
2022/10/31 11:38:20;;;;;;;21.75;3.38;;;;;;;;;;4997351;28;20461;-31
2022/10/31 11:40:58;;;;;;;16.58;3.45;;;;;;;;;;4997289;28;20038;-32
2022/10/31 11:43:25;;;;;;;10.93;3.95;;;;;;;;;;4997517;28;20057;-31
2022/10/31 11:45:51;;;;;;;12.10;3.40;;;;;;;;;;4997555;28;20080;-32
2022/10/31 11:48:23;;;;;;;15.57;3.55;;;;;;;;;;4997823;28;20040;-33
2022/10/31 11:50:56;;;;;;;15.80;3.33;;;;;;;;;;4997324;28;20338;-35
2022/10/31 11:53:33;;;;;;;9.88;2.90;;;;;;;;;;4997189;28;20041;-32
2022/10/31 11:56:11;;;;;;;9.60;2.90;;;;;;;;;;4997255;28;20027;-33
2022/10/31 11:58:37;;;;;;;25.35;4.72;;;;;;;;;;4997023;28;20042;-37
2022/10/31 12:01:04;;;;;;;20.52;3.35;;;;;;;;;;4997275;28;20041;-33
2022/10/31 12:03:49;;;;;;;12.45;3.60;;;;;;;;;;4996853;28;20050;-32
2022/10/31 12:06:15;;;;;;;7.25;3.50;;;;;;;;;;4997201;28;20026;-31
2022/10/31 12:08:42;;;;;;;8.88;3.88;;;;;;;;;;4997136;28;20034;-32
2022/10/31 12:11:27;;;;;;;13.60;3.88;;;;;;;;;;4980273;28;20504;-34
2022/10/31 12:13:55;;;;;;;19.95;3.80;;;;;;;;;;4996746;28;20030;-32
2022/10/31 12:16:41;;;;;;;9.45;2.42;;;;;;;;;;4996982;28;20042;-34
2022/10/31 12:19:34;;;;;;;12.82;3.08;;;;;;;;;;4983376;28;20047;-31
2022/10/31 12:22:00;;;;;;;11.95;4.65;;;;;;;;;;4993098;28;20038;-32
2022/10/31 12:24:46;;;;;;;19.77;2.92;;;;;;;;;;4996544;28;20038;-33
2022/10/31 12:27:31;;;;;;;12.73;3.65;;;;;;;;;;4996660;28;20030;-32
2022/10/31 12:29:57;;;;;;;15.57;3.28;;;;;;;;;;4996641;28;20045;-32
2022/10/31 12:32:55;;;;;;;13.68;3.63;;;;;;;;;;4996631;28;20030;-32
2022/10/31 12:35:40;;;;;;;15.52;3.55;;;;;;;;;;4954168;28;20031;-32
2022/10/31 12:38:16;;;;;;;16.38;4.25;;;;;;;;;;4996214;28;20038;-32
2022/10/31 12:41:00;;;;;;;21.33;3.78;;;;;;;;;;4996498;28;20045;-32
2022/10/31 12:43:45;;;;;;;20.80;3.13;;;;;;;;;;4978740;28;20063;-32
2022/10/31 12:46:16;;;;;;;21.17;2.72;;;;;;;;;;4996243;28;20113;-33
2022/10/31 12:48:48;;;;;;;17.25;3.28;;;;;;;;;;4996032;28;20034;-31
2022/10/31 12:51:14;;;;;;;;;;;;;;;;;;4996680;28;20019;-31
2022/10/31 12:54:06;;;;;;;12.65;2.72;;;;;;;;;;4996208;28;20340;-31
2022/10/31 12:56:38;;;;;;;21.40;3.20;;;;;;;;;;4992441;28;20106;-32
2022/10/31 12:59:10;;;;;;;10.98;2.85;;;;;;;;;;4978837;28;20030;-31
2022/10/31 13:01:59;;;;;;;7.05;2.83;;;;;;;;;;4996184;28;20022;-31
2022/10/31 13:04:28;;;;;;;18.70;3.85;;;;;;;;;;4995398;28;20058;-32
2022/10/31 13:06:58;;;;;;;16.40;3.55;;;;;;;;;;4996211;28;20041;-31
2022/10/31 13:09:31;;;;;;;16.97;3.97;;;;;;;;;;4995625;28;20030;-33
2022/10/31 13:12:00;;;;;;;16.65;4.60;;;;;;;;;;4995491;28;20262;-31
2022/10/31 13:14:30;;;;;;;9.80;3.28;;;;;;;;;;4995589;28;20018;-30
2022/10/31 13:16:56;;;;;;;6.80;2.50;;;;;;;;;;4995871;28;20029;-31
2022/10/31 13:19:26;;;;;;;10.88;3.30;;;;;;;;;;4995767;28;20057;-32
2022/10/31 13:21:55;;;;;;;12.20;2.88;;;;;;;;;;4995376;28;20097;-31
2022/10/31 13:24:24;;;;;;;29.98;3.22;;;;;;;;;;4996244;28;20034;-31
2022/10/31 13:26:54;;;;;;;9.75;3.58;;;;;;;;;;4995623;28;20404;-31
2022/10/31 13:29:27;;;;;;;8.88;2.60;;;;;;;;;;4978743;28;20427;-30
2022/10/31 13:31:54;;;;;;;10.65;3.10;;;;;;;;;;4995303;28;20026;-30
2022/10/31 13:34:23;;;;;;;15.18;3.15;;;;;;;;;;4978332;28;20030;-30
2022/10/31 13:36:55;;;;;;;19.38;3.40;;;;;;;;;;4995350;28;20129;-32
2022/10/31 13:39:40;;;;;;;8.38;3.40;;;;;;;;;;4995491;28;20030;-32
2022/10/31 13:42:22;;;;;;;21.35;3.65;;;;;;;;;;4995383;28;20026;-30
2022/10/31 13:44:48;;;;;;;6.00;3.00;;;;;;;;;;4995147;28;20408;-32
2022/10/31 13:47:22;;;;;;;14.68;3.13;;;;;;;;;;4994977;28;20342;-32
2022/10/31 13:49:48;;;;;;;11.80;2.70;;;;;;;;;;4995114;28;20085;-33
2022/10/31 13:52:24;;;;;;;14.73;3.22;;;;;;;;;;4995206;28;20015;-33
2022/10/31 13:54:57;;;;;;;23.38;3.97;;;;;;;;;;4994523;28;20030;-33
2022/10/31 13:57:35;;;;;;;16.65;4.72;;;;;;;;;;4995476;28;20033;-33
2022/10/31 14:00:23;;;;;;;15.45;3.33;;;;;;;;;;4994792;28;20042;-33
2022/10/31 14:02:50;;;;;;;20.65;3.15;;;;;;;;;;4994961;28;20426;-33
2022/10/31 14:05:33;;;;;;;11.57;3.40;;;;;;;;;;4995479;28;20398;-33
2022/10/31 14:08:03;;;;;;;10.82;2.88;;;;;;;;;;4995160;28;20057;-34
2022/10/31 14:10:31;;;;;;;28.60;4.00;;;;;;;;;;4994863;28;20037;-31
2022/10/31 14:13:05;;;;;;;16.73;3.33;;;;;;;;;;4994760;28;20037;-33
2022/10/31 14:15:31;;;;;;;10.07;3.33;;;;;;;;;;4994995;28;20033;-35
2022/10/31 14:17:59;;;;;;;17.55;3.90;;;;;;;;;;4995004;28;20034;-32
2022/10/31 14:20:32;;;;;;;13.02;3.15;;;;;;;;;;4995046;28;20030;-35
2022/10/31 14:22:58;;;;;;;17.35;3.00;;;;;;;;;;4995146;28;20035;-31
2022/10/31 14:25:26;;;;;;;10.45;2.95;;;;;;;;;;4994859;28;20034;-31
2022/10/31 14:27:52;;;;;;;18.10;3.25;;;;;;;;;;4994843;28;20034;-31
2022/10/31 14:30:23;;;;;;;10.05;2.85;;;;;;;;;;4994842;28;20033;-32
2022/10/31 14:32:58;;;;;;;16.50;4.20;;;;;;;;;;4995055;28;20033;-32
2022/10/31 14:35:28;;;;;;;9.32;3.05;;;;;;;;;;4995097;28;20102;-32
2022/10/31 14:38:20;;;;;;;7.93;3.27;;;;;;;;;;4995379;28;20042;-32
2022/10/31 14:40:49;;;;;;;16.80;4.28;;;;;;;;;;4978162;28;20041;-32
2022/10/31 14:43:22;;;;;;;25.70;4.00;;;;;;;;;;4994983;28;20042;-31
2022/10/31 14:45:48;;;;;;;18.23;3.83;;;;;;;;;;4995024;28;20030;-32
2022/10/31 14:48:33;;;;;;;12.98;3.55;;;;;;;;;;4995173;28;20057;-33
2022/10/31 14:51:00;;;;;;;18.08;3.25;;;;;;;;;;4994649;28;20038;-31
2022/10/31 14:53:29;;;;;;;15.18;3.67;;;;;;;;;;4995072;28;20488;-32
2022/10/31 14:55:56;;;;;;;14.52;3.65;;;;;;;;;;4994550;28;20110;-31
2022/10/31 14:58:33;;;;;;;15.63;3.20;;;;;;;;;;4994447;28;20088;-33
2022/10/31 15:01:00;;;;;;;19.00;3.75;;;;;;;;;;4995026;28;20036;-32
2022/10/31 15:03:32;;;;;;;19.92;3.80;;;;;;;;;;4994354;28;20117;-31